ADDS METAR Data INFO
IDs: Format: Raw Decoded Include TAF

Data at: 2034 UTC 20 Jul 2018

METAR for:KBEA (Beeville Muni, TX, US)
Text:KBEA 202015Z AUTO 17004KT 10SM CLR 36/21 A2993 RMK AO2 T03550208
Temperature: 35.5°C ( 96°F)
Dewpoint: 20.8°C ( 69°F) [RH = 43%]
Pressure (altimeter):29.93 inches Hg (1013.6 mb)
Winds:from the S (170 degrees) at 5 MPH (4 knots; 2.1 m/s)
Visibility:10 or more sm (16+ km)
Ceiling:at least 12,000 feet AGL
Clouds:sky clear below 12,000 feet AGL
QC Flag:automated observation with no human augmentation